Aeroporto :
LOGIN :

Iscrizione | Disclaimer

   EN    FR    IT 

 










Sommario :    VFR   VFR Marginale   IFR   IFR Intensivo   IFR Molto Intensivo
Visibilità : 
Base nubi : 
>= 8 km
>= 3000ft
5 / 8 km
1000 / 3000 ft
1500m / 5 km
500 / 1000 ft
800 / 1500m
200 / 500 ft
< 800m
< 200 ft
Simboli :   Temporali  Nebbia  Neve Forte  Precipitazioni Forti  Vento > 20 kt
SIGMETs :   Varie  Temporali  Ghiacco  Turbolenza  Onda orograficha  Ceneri Vulcaniche






- Altitudine del aeroporto : 37 ft


EHVL - Vlieland Heliport

ULTIMO METAR :
  • 261455Z AUTO 30022KT 9999 SCT190 06/02 Q0999 BLU

METARs OBSOLETI :
  • 261425Z AUTO 30022KT 9999 FEW021 SCT041 BKN052 06/02 Q0998 BLU
  • 261409Z AUTO 30022KT 9999 SCT019 OVC170 06/02 Q0998 WHT
  • 261355Z AUTO 30021KT 9999 BKN018 BKN022 OVC026 07/03 Q0998 WHT
  • 261346Z AUTO 30020KT 9999 SCT018 SCT022 BKN027 06/03 Q0998 WHT
  • 261338Z AUTO 30020KT 9999 FEW018 OVC140 06/03 Q0998 BLU
  • 261318Z AUTO 30016KT 9999 +DZRA FEW001 SCT022 BKN026 05/03 Q0998 WHT
  • 261255Z AUTO 30017KT 9999 -RA FEW018 BKN032 OVC038 05/02 Q0997 BLU
  • 261244Z AUTO 31023KT 9999 -RA FEW012 SCT018 BKN033 05/02 Q0997 WHT

Previsioni scadute.



MetMap, La meteo Aeronautica in un colpo d'occhio ! - Copyright ORBIFLY Dicembre 2007 - Disclaimer

ORBIFLY MET'MAP TEAM :

Programmazione e sviluppo : Alexandra Zaïnal
Concezione : Baudouin d'Aumeries
Aiuto per la programmazione : Marc-Olivier Méhu
Supporto tecnico e logistico : Manuel Goepfert
Aiuto per la traduzione : Arnaldo La Scala

Contatto : metmap@orbifly.com




FONTI E CREDITI :

   NOAA